sensor_id;sensor_type;location;lat;lon;timestamp;P1;durP1;ratioP1;P2;durP2;ratioP2
1164;SDS011;571;50.930;6.926;2022-12-11T03:46:39;36.47;;;19.88;;
1164;SDS011;571;50.930;6.926;2022-12-11T03:49:10;32.20;;;17.80;;
1164;SDS011;571;50.930;6.926;2022-12-11T03:51:41;37.03;;;19.40;;
1164;SDS011;571;50.930;6.926;2022-12-11T03:54:09;30.57;;;18.03;;
1164;SDS011;571;50.930;6.926;2022-12-11T03:56:36;32.27;;;18.47;;
1164;SDS011;571;50.930;6.926;2022-12-11T03:59:06;34.10;;;20.40;;
1164;SDS011;571;50.930;6.926;2022-12-11T04:01:33;38.00;;;20.00;;
1164;SDS011;571;50.930;6.926;2022-12-11T04:04:01;32.97;;;18.67;;
1164;SDS011;571;50.930;6.926;2022-12-11T04:06:28;31.67;;;17.83;;
1164;SDS011;571;50.930;6.926;2022-12-11T04:08:55;32.70;;;18.10;;
1164;SDS011;571;50.930;6.926;2022-12-11T04:11:21;31.35;;;19.10;;
1164;SDS011;571;50.930;6.926;2022-12-11T04:14:01;32.43;;;18.33;;
1164;SDS011;571;50.930;6.926;2022-12-11T04:16:45;34.37;;;17.03;;
1164;SDS011;571;50.930;6.926;2022-12-11T04:19:13;35.83;;;19.63;;
1164;SDS011;571;50.930;6.926;2022-12-11T04:21:57;38.10;;;19.50;;
1164;SDS011;571;50.930;6.926;2022-12-11T04:24:53;33.17;;;18.87;;
1164;SDS011;571;50.930;6.926;2022-12-11T04:27:20;34.47;;;20.13;;
1164;SDS011;571;50.930;6.926;2022-12-11T04:30:05;31.90;;;18.37;;
1164;SDS011;571;50.930;6.926;2022-12-11T04:32:34;30.97;;;18.60;;
1164;SDS011;571;50.930;6.926;2022-12-11T04:35:05;27.77;;;15.70;;
1164;SDS011;571;50.930;6.926;2022-12-11T04:37:32;26.43;;;17.47;;
1164;SDS011;571;50.930;6.926;2022-12-11T04:39:59;27.77;;;16.93;;
1164;SDS011;571;50.930;6.926;2022-12-11T04:42:26;34.20;;;16.00;;
1164;SDS011;571;50.930;6.926;2022-12-11T04:44:53;23.07;;;15.00;;
1164;SDS011;571;50.930;6.926;2022-12-11T04:47:20;32.07;;;15.07;;
1164;SDS011;571;50.930;6.926;2022-12-11T04:49:47;32.37;;;15.63;;
1164;SDS011;571;50.930;6.926;2022-12-11T04:52:15;27.90;;;16.03;;
1164;SDS011;571;50.930;6.926;2022-12-11T04:54:43;29.37;;;15.07;;
1164;SDS011;571;50.930;6.926;2022-12-11T04:57:09;27.40;;;15.03;;
1164;SDS011;571;50.930;6.926;2022-12-11T04:59:36;26.00;;;14.70;;
1164;SDS011;571;50.930;6.926;2022-12-11T05:02:03;29.67;;;17.17;;
1164;SDS011;571;50.930;6.926;2022-12-11T05:04:30;27.50;;;17.50;;
1164;SDS011;571;50.930;6.926;2022-12-11T05:06:57;27.57;;;17.40;;
1164;SDS011;571;50.930;6.926;2022-12-11T05:09:26;25.17;;;15.43;;
1164;SDS011;571;50.930;6.926;2022-12-11T05:11:53;26.97;;;16.30;;
1164;SDS011;571;50.930;6.926;2022-12-11T05:14:20;29.57;;;14.23;;
1164;SDS011;571;50.930;6.926;2022-12-11T05:16:47;29.00;;;15.43;;
1164;SDS011;571;50.930;6.926;2022-12-11T05:19:14;28.70;;;15.73;;
1164;SDS011;571;50.930;6.926;2022-12-11T05:21:41;28.63;;;16.37;;
1164;SDS011;571;50.930;6.926;2022-12-11T05:24:08;24.87;;;16.70;;
1164;SDS011;571;50.930;6.926;2022-12-11T05:26:36;28.47;;;17.63;;
1164;SDS011;571;50.930;6.926;2022-12-11T05:29:03;24.53;;;16.27;;
1164;SDS011;571;50.930;6.926;2022-12-11T05:31:29;24.87;;;17.20;;
1164;SDS011;571;50.930;6.926;2022-12-11T05:33:56;28.97;;;16.23;;
1164;SDS011;571;50.930;6.926;2022-12-11T05:36:24;21.80;;;15.47;;
1164;SDS011;571;50.930;6.926;2022-12-11T05:38:52;26.23;;;14.13;;
1164;SDS011;571;50.930;6.926;2022-12-11T05:41:22;25.10;;;15.80;;
1164;SDS011;571;50.930;6.926;2022-12-11T05:43:51;25.03;;;16.23;;
1164;SDS011;571;50.930;6.926;2022-12-11T05:46:19;23.83;;;15.20;;
1164;SDS011;571;50.930;6.926;2022-12-11T05:48:48;23.93;;;15.30;;
1164;SDS011;571;50.930;6.926;2022-12-11T05:51:16;32.40;;;17.40;;
1164;SDS011;571;50.930;6.926;2022-12-11T05:53:44;31.23;;;16.60;;
1164;SDS011;571;50.930;6.926;2022-12-11T05:56:13;26.30;;;14.00;;
1164;SDS011;571;50.930;6.926;2022-12-11T05:58:41;25.50;;;14.17;;
1164;SDS011;571;50.930;6.926;2022-12-11T06:01:11;26.90;;;15.90;;
1164;SDS011;571;50.930;6.926;2022-12-11T06:03:40;31.60;;;17.77;;
1164;SDS011;571;50.930;6.926;2022-12-11T06:06:07;22.70;;;15.43;;
1164;SDS011;571;50.930;6.926;2022-12-11T06:08:34;26.00;;;15.27;;
1164;SDS011;571;50.930;6.926;2022-12-11T06:11:01;29.30;;;15.23;;
1164;SDS011;571;50.930;6.926;2022-12-11T06:13:28;24.83;;;15.77;;
1164;SDS011;571;50.930;6.926;2022-12-11T06:15:58;25.57;;;15.87;;
1164;SDS011;571;50.930;6.926;2022-12-11T06:18:27;30.13;;;17.80;;
1164;SDS011;571;50.930;6.926;2022-12-11T06:20:54;27.20;;;16.87;;
1164;SDS011;571;50.930;6.926;2022-12-11T06:23:20;32.40;;;18.00;;
1164;SDS011;571;50.930;6.926;2022-12-11T06:25:47;31.23;;;19.17;;
1164;SDS011;571;50.930;6.926;2022-12-11T06:28:14;29.00;;;16.80;;
1164;SDS011;571;50.930;6.926;2022-12-11T06:30:41;29.13;;;17.80;;
1164;SDS011;571;50.930;6.926;2022-12-11T06:33:09;24.40;;;15.87;;
1164;SDS011;571;50.930;6.926;2022-12-11T06:35:37;37.93;;;18.00;;
1164;SDS011;571;50.930;6.926;2022-12-11T06:38:04;33.37;;;18.67;;
1164;SDS011;571;50.930;6.926;2022-12-11T06:40:30;29.00;;;16.00;;
1164;SDS011;571;50.930;6.926;2022-12-11T06:42:57;27.27;;;17.23;;
1164;SDS011;571;50.930;6.926;2022-12-11T06:45:24;29.20;;;17.80;;
1164;SDS011;571;50.930;6.926;2022-12-11T06:47:51;30.87;;;16.70;;
1164;SDS011;571;50.930;6.926;2022-12-11T06:50:17;28.70;;;15.83;;
1164;SDS011;571;50.930;6.926;2022-12-11T06:52:45;28.53;;;17.17;;
1164;SDS011;571;50.930;6.926;2022-12-11T06:55:12;38.97;;;20.50;;
1164;SDS011;571;50.930;6.926;2022-12-11T06:57:39;27.93;;;17.87;;
1164;SDS011;571;50.930;6.926;2022-12-11T07:00:06;28.97;;;16.37;;
1164;SDS011;571;50.930;6.926;2022-12-11T07:02:34;30.03;;;17.37;;
1164;SDS011;571;50.930;6.926;2022-12-11T07:05:00;29.87;;;16.97;;
1164;SDS011;571;50.930;6.926;2022-12-11T07:07:27;25.03;;;15.33;;
1164;SDS011;571;50.930;6.926;2022-12-11T07:09:55;28.37;;;16.40;;
1164;SDS011;571;50.930;6.926;2022-12-11T07:12:22;31.17;;;18.23;;
1164;SDS011;571;50.930;6.926;2022-12-11T07:14:49;30.90;;;17.70;;
1164;SDS011;571;50.930;6.926;2022-12-11T07:17:16;32.20;;;20.13;;
1164;SDS011;571;50.930;6.926;2022-12-11T07:19:42;34.00;;;19.97;;
1164;SDS011;571;50.930;6.926;2022-12-11T07:22:09;35.30;;;17.93;;
1164;SDS011;571;50.930;6.926;2022-12-11T07:24:36;32.40;;;19.67;;
1164;SDS011;571;50.930;6.926;2022-12-11T07:27:04;29.40;;;18.60;;
1164;SDS011;571;50.930;6.926;2022-12-11T07:29:31;31.07;;;18.13;;
1164;SDS011;571;50.930;6.926;2022-12-11T07:31:58;29.70;;;18.03;;
1164;SDS011;571;50.930;6.926;2022-12-11T07:34:24;30.73;;;20.23;;
1164;SDS011;571;50.930;6.926;2022-12-11T07:36:51;29.17;;;17.37;;
1164;SDS011;571;50.930;6.926;2022-12-11T07:39:18;30.50;;;18.00;;
1164;SDS011;571;50.930;6.926;2022-12-11T07:41:44;33.47;;;19.70;;
1164;SDS011;571;50.930;6.926;2022-12-11T07:44:13;34.57;;;19.67;;
1164;SDS011;571;50.930;6.926;2022-12-11T07:46:40;35.50;;;20.37;;
1164;SDS011;571;50.930;6.926;2022-12-11T07:49:07;39.07;;;21.97;;
1164;SDS011;571;50.930;6.926;2022-12-11T07:51:34;35.83;;;19.67;;
1164;SDS011;571;50.930;6.926;2022-12-11T07:54:03;36.67;;;20.00;;
1164;SDS011;571;50.930;6.926;2022-12-11T07:56:32;36.58;;;21.75;;
1164;SDS011;571;50.930;6.926;2022-12-11T07:59:00;28.63;;;17.53;;
1164;SDS011;571;50.930;6.926;2022-12-11T08:01:30;36.03;;;19.30;;
1164;SDS011;571;50.930;6.926;2022-12-11T08:03:59;30.83;;;17.97;;
1164;SDS011;571;50.930;6.926;2022-12-11T08:06:27;32.10;;;19.20;;
1164;SDS011;571;50.930;6.926;2022-12-11T08:08:55;36.40;;;21.00;;
1164;SDS011;571;50.930;6.926;2022-12-11T08:11:22;27.50;;;17.00;;
1164;SDS011;571;50.930;6.926;2022-12-11T08:13:49;36.63;;;18.27;;
1164;SDS011;571;50.930;6.926;2022-12-11T08:16:17;27.93;;;17.60;;
1164;SDS011;571;50.930;6.926;2022-12-11T08:18:46;29.63;;;15.90;;
1164;SDS011;571;50.930;6.926;2022-12-11T08:21:13;25.60;;;14.43;;
1164;SDS011;571;50.930;6.926;2022-12-11T08:23:43;23.90;;;16.03;;
1164;SDS011;571;50.930;6.926;2022-12-11T08:26:12;31.27;;;17.10;;
1164;SDS011;571;50.930;6.926;2022-12-11T08:28:40;26.23;;;16.57;;
1164;SDS011;571;50.930;6.926;2022-12-11T08:31:07;34.03;;;18.13;;
1164;SDS011;571;50.930;6.926;2022-12-11T08:33:36;31.07;;;17.10;;
1164;SDS011;571;50.930;6.926;2022-12-11T08:36:06;26.07;;;17.37;;
1164;SDS011;571;50.930;6.926;2022-12-11T08:38:34;22.57;;;15.50;;
1164;SDS011;571;50.930;6.926;2022-12-11T08:41:06;31.67;;;19.60;;
1164;SDS011;571;50.930;6.926;2022-12-11T08:43:34;38.10;;;20.30;;
1164;SDS011;571;50.930;6.926;2022-12-11T08:46:00;32.17;;;17.07;;
1164;SDS011;571;50.930;6.926;2022-12-11T08:48:27;24.27;;;17.10;;
1164;SDS011;571;50.930;6.926;2022-12-11T08:50:54;29.83;;;17.10;;
1164;SDS011;571;50.930;6.926;2022-12-11T08:53:25;21.30;;;14.40;;
1164;SDS011;571;50.930;6.926;2022-12-11T08:55:52;32.33;;;17.23;;
1164;SDS011;571;50.930;6.926;2022-12-11T08:58:19;25.50;;;16.80;;
1164;SDS011;571;50.930;6.926;2022-12-11T09:00:46;36.77;;;19.20;;
1164;SDS011;571;50.930;6.926;2022-12-11T09:03:12;23.23;;;15.07;;
1164;SDS011;571;50.930;6.926;2022-12-11T09:05:39;23.77;;;16.17;;
1164;SDS011;571;50.930;6.926;2022-12-11T09:08:06;30.47;;;17.47;;
1164;SDS011;571;50.930;6.926;2022-12-11T09:10:34;25.57;;;17.57;;
1164;SDS011;571;50.930;6.926;2022-12-11T09:13:01;54.70;;;18.17;;
1164;SDS011;571;50.930;6.926;2022-12-11T09:15:28;25.87;;;14.60;;
1164;SDS011;571;50.930;6.926;2022-12-11T09:17:54;29.77;;;15.63;;
1164;SDS011;571;50.930;6.926;2022-12-11T09:20:21;27.90;;;15.93;;
1164;SDS011;571;50.930;6.926;2022-12-11T09:22:48;29.13;;;17.43;;
1164;SDS011;571;50.930;6.926;2022-12-11T09:25:15;25.77;;;16.80;;
1164;SDS011;571;50.930;6.926;2022-12-11T09:27:43;32.33;;;17.23;;
1164;SDS011;571;50.930;6.926;2022-12-11T09:30:10;21.63;;;15.40;;
1164;SDS011;571;50.930;6.926;2022-12-11T09:32:37;25.60;;;14.90;;
1164;SDS011;571;50.930;6.926;2022-12-11T09:35:05;25.57;;;14.67;;
1164;SDS011;571;50.930;6.926;2022-12-11T09:37:36;26.90;;;16.67;;
1164;SDS011;571;50.930;6.926;2022-12-11T09:40:03;34.43;;;18.10;;
1164;SDS011;571;50.930;6.926;2022-12-11T09:42:31;27.83;;;17.60;;
1164;SDS011;571;50.930;6.926;2022-12-11T09:45:13;27.47;;;16.50;;
1164;SDS011;571;50.930;6.926;2022-12-11T09:47:42;30.10;;;16.63;;
1164;SDS011;571;50.930;6.926;2022-12-11T09:50:12;25.73;;;17.17;;
1164;SDS011;571;50.930;6.926;2022-12-11T09:52:51;28.23;;;16.63;;
1164;SDS011;571;50.930;6.926;2022-12-11T09:55:28;25.37;;;17.13;;
1164;SDS011;571;50.930;6.926;2022-12-11T09:58:01;29.40;;;16.80;;
1164;SDS011;571;50.930;6.926;2022-12-11T10:00:34;24.97;;;16.90;;
1164;SDS011;571;50.930;6.926;2022-12-11T10:03:21;32.27;;;19.67;;
1164;SDS011;571;50.930;6.926;2022-12-11T10:06:01;34.20;;;18.97;;
1164;SDS011;571;50.930;6.926;2022-12-11T10:08:34;32.80;;;20.63;;
1164;SDS011;571;50.930;6.926;2022-12-11T10:11:13;32.03;;;19.80;;
1164;SDS011;571;50.930;6.926;2022-12-11T10:14:05;34.30;;;19.67;;
1164;SDS011;571;50.930;6.926;2022-12-11T10:16:40;39.70;;;19.87;;
1164;SDS011;571;50.930;6.926;2022-12-11T10:19:11;33.47;;;20.00;;
1164;SDS011;571;50.930;6.926;2022-12-11T10:21:43;32.90;;;18.47;;
1164;SDS011;571;50.930;6.926;2022-12-11T10:24:13;30.17;;;18.07;;
1164;SDS011;571;50.930;6.926;2022-12-11T10:26:57;36.43;;;21.67;;
1164;SDS011;571;50.930;6.926;2022-12-11T10:29:26;37.90;;;19.97;;
1164;SDS011;571;50.930;6.926;2022-12-11T10:31:56;40.40;;;21.03;;
1164;SDS011;571;50.930;6.926;2022-12-11T10:34:26;38.87;;;20.40;;
1164;SDS011;571;50.930;6.926;2022-12-11T10:36:59;49.33;;;24.50;;
1164;SDS011;571;50.930;6.926;2022-12-11T10:39:26;37.83;;;21.47;;
1164;SDS011;571;50.930;6.926;2022-12-11T10:42:00;54.17;;;26.50;;
1164;SDS011;571;50.930;6.926;2022-12-11T10:44:53;42.90;;;25.07;;
1164;SDS011;571;50.930;6.926;2022-12-11T10:47:23;40.17;;;20.73;;
1164;SDS011;571;50.930;6.926;2022-12-11T10:49:52;44.33;;;24.60;;
1164;SDS011;571;50.930;6.926;2022-12-11T10:52:23;41.17;;;23.20;;
1164;SDS011;571;50.930;6.926;2022-12-11T10:54:54;46.97;;;22.70;;
1164;SDS011;571;50.930;6.926;2022-12-11T10:57:25;44.77;;;23.83;;
1164;SDS011;571;50.930;6.926;2022-12-11T10:59:54;46.50;;;24.30;;
1164;SDS011;571;50.930;6.926;2022-12-11T11:02:23;40.40;;;23.63;;
1164;SDS011;571;50.930;6.926;2022-12-11T11:04:52;49.13;;;25.50;;
1164;SDS011;571;50.930;6.926;2022-12-11T11:07:20;57.80;;;29.20;;
1164;SDS011;571;50.930;6.926;2022-12-11T11:09:49;54.43;;;29.60;;
1164;SDS011;571;50.930;6.926;2022-12-11T11:12:19;58.43;;;29.33;;
1164;SDS011;571;50.930;6.926;2022-12-11T11:14:57;65.20;;;32.17;;
1164;SDS011;571;50.930;6.926;2022-12-11T11:17:26;56.83;;;32.43;;
1164;SDS011;571;50.930;6.926;2022-12-11T11:19:53;45.90;;;28.27;;
1164;SDS011;571;50.930;6.926;2022-12-11T11:22:20;64.30;;;31.03;;
1164;SDS011;571;50.930;6.926;2022-12-11T11:24:51;52.03;;;26.73;;
1164;SDS011;571;50.930;6.926;2022-12-11T11:27:22;53.00;;;28.70;;
1164;SDS011;571;50.930;6.926;2022-12-11T11:29:54;47.83;;;27.70;;
1164;SDS011;571;50.930;6.926;2022-12-11T11:32:26;43.67;;;23.87;;
1164;SDS011;571;50.930;6.926;2022-12-11T11:35:04;38.57;;;22.17;;
1164;SDS011;571;50.930;6.926;2022-12-11T11:37:43;39.53;;;20.40;;
1164;SDS011;571;50.930;6.926;2022-12-11T11:40:12;43.70;;;21.10;;
1164;SDS011;571;50.930;6.926;2022-12-11T11:42:44;43.27;;;22.40;;
1164;SDS011;571;50.930;6.926;2022-12-11T11:45:16;45.37;;;24.00;;
1164;SDS011;571;50.930;6.926;2022-12-11T11:47:51;39.60;;;21.80;;
1164;SDS011;571;50.930;6.926;2022-12-11T11:50:26;44.17;;;23.97;;
1164;SDS011;571;50.930;6.926;2022-12-11T11:52:59;38.23;;;22.80;;
1164;SDS011;571;50.930;6.926;2022-12-11T11:55:31;43.93;;;22.10;;
1164;SDS011;571;50.930;6.926;2022-12-11T11:58:06;40.90;;;20.17;;
1164;SDS011;571;50.930;6.926;2022-12-11T12:00:39;38.77;;;22.50;;
1164;SDS011;571;50.930;6.926;2022-12-11T12:03:09;48.57;;;23.70;;
1164;SDS011;571;50.930;6.926;2022-12-11T12:05:42;32.73;;;17.90;;
1164;SDS011;571;50.930;6.926;2022-12-11T12:08:16;34.20;;;19.97;;
1164;SDS011;571;50.930;6.926;2022-12-11T12:10:56;35.67;;;20.93;;
1164;SDS011;571;50.930;6.926;2022-12-11T12:13:29;37.03;;;19.67;;
1164;SDS011;571;50.930;6.926;2022-12-11T12:16:01;31.87;;;19.37;;
1164;SDS011;571;50.930;6.926;2022-12-11T12:18:34;35.13;;;20.50;;
1164;SDS011;571;50.930;6.926;2022-12-11T12:21:15;33.00;;;17.83;;
1164;SDS011;571;50.930;6.926;2022-12-11T12:23:48;30.97;;;18.27;;
1164;SDS011;571;50.930;6.926;2022-12-11T12:26:26;33.97;;;20.00;;
1164;SDS011;571;50.930;6.926;2022-12-11T12:28:57;33.80;;;19.77;;
1164;SDS011;571;50.930;6.926;2022-12-11T12:31:39;36.37;;;21.63;;
1164;SDS011;571;50.930;6.926;2022-12-11T12:34:17;36.00;;;21.70;;
1164;SDS011;571;50.930;6.926;2022-12-11T12:36:55;40.00;;;24.40;;
1164;SDS011;571;50.930;6.926;2022-12-11T12:39:32;39.37;;;22.77;;
1164;SDS011;571;50.930;6.926;2022-12-11T12:42:08;38.23;;;20.87;;
1164;SDS011;571;50.930;6.926;2022-12-11T12:44:50;38.10;;;22.10;;
1164;SDS011;571;50.930;6.926;2022-12-11T12:47:24;44.77;;;23.50;;
1164;SDS011;571;50.930;6.926;2022-12-11T12:49:54;42.53;;;22.90;;
1164;SDS011;571;50.930;6.926;2022-12-11T12:52:25;40.33;;;23.37;;
1164;SDS011;571;50.930;6.926;2022-12-11T12:54:57;39.10;;;23.17;;
1164;SDS011;571;50.930;6.926;2022-12-11T12:57:40;39.10;;;22.20;;
1164;SDS011;571;50.930;6.926;2022-12-11T13:00:10;34.50;;;20.40;;
1164;SDS011;571;50.930;6.926;2022-12-11T13:02:37;32.47;;;20.37;;
1164;SDS011;571;50.930;6.926;2022-12-11T13:05:19;31.43;;;20.10;;
1164;SDS011;571;50.930;6.926;2022-12-11T13:07:48;33.77;;;18.93;;
1164;SDS011;571;50.930;6.926;2022-12-11T13:10:24;33.80;;;18.50;;
1164;SDS011;571;50.930;6.926;2022-12-11T13:12:53;33.07;;;18.57;;
1164;SDS011;571;50.930;6.926;2022-12-11T13:15:28;36.33;;;19.77;;
1164;SDS011;571;50.930;6.926;2022-12-11T13:18:03;32.63;;;18.33;;
1164;SDS011;571;50.930;6.926;2022-12-11T13:20:48;33.50;;;19.10;;
1164;SDS011;571;50.930;6.926;2022-12-11T13:23:17;35.20;;;19.13;;
1164;SDS011;571;50.930;6.926;2022-12-11T13:25:53;31.93;;;18.83;;
1164;SDS011;571;50.930;6.926;2022-12-11T13:28:22;34.27;;;18.97;;
1164;SDS011;571;50.930;6.926;2022-12-11T13:30:58;29.87;;;18.03;;
1164;SDS011;571;50.930;6.926;2022-12-11T13:33:31;36.10;;;18.73;;
1164;SDS011;571;50.930;6.926;2022-12-11T13:36:17;30.63;;;19.93;;
1164;SDS011;571;50.930;6.926;2022-12-11T13:38:54;25.57;;;16.43;;
1164;SDS011;571;50.930;6.926;2022-12-11T13:41:25;26.83;;;17.27;;
1164;SDS011;571;50.930;6.926;2022-12-11T13:43:52;32.10;;;17.53;;
1164;SDS011;571;50.930;6.926;2022-12-11T13:46:21;22.53;;;14.53;;
1164;SDS011;571;50.930;6.926;2022-12-11T13:48:52;28.83;;;17.23;;
1164;SDS011;571;50.930;6.926;2022-12-11T13:51:23;26.17;;;16.47;;
1164;SDS011;571;50.930;6.926;2022-12-11T13:54:01;26.70;;;16.70;;
1164;SDS011;571;50.930;6.926;2022-12-11T13:56:29;26.20;;;15.60;;
1164;SDS011;571;50.930;6.926;2022-12-11T13:58:56;31.13;;;17.43;;
1164;SDS011;571;50.930;6.926;2022-12-11T14:01:23;28.73;;;16.70;;
1164;SDS011;571;50.930;6.926;2022-12-11T14:03:56;28.63;;;16.67;;
1164;SDS011;571;50.930;6.926;2022-12-11T14:06:26;21.60;;;15.60;;
1164;SDS011;571;50.930;6.926;2022-12-11T14:08:55;29.07;;;18.30;;
1164;SDS011;571;50.930;6.926;2022-12-11T14:11:26;24.67;;;15.87;;
1164;SDS011;571;50.930;6.926;2022-12-11T14:13:56;27.00;;;17.23;;
1164;SDS011;571;50.930;6.926;2022-12-11T14:16:25;27.73;;;17.90;;
1164;SDS011;571;50.930;6.926;2022-12-11T14:18:53;25.27;;;18.27;;
1164;SDS011;571;50.930;6.926;2022-12-11T14:21:26;33.07;;;18.90;;
1164;SDS011;571;50.930;6.926;2022-12-11T14:23:53;29.37;;;17.23;;
1164;SDS011;571;50.930;6.926;2022-12-11T14:26:22;31.90;;;18.63;;
1164;SDS011;571;50.930;6.926;2022-12-11T14:28:50;30.47;;;18.30;;
1164;SDS011;571;50.930;6.926;2022-12-11T14:31:19;26.00;;;16.60;;
1164;SDS011;571;50.930;6.926;2022-12-11T14:33:53;35.17;;;15.70;;
1164;SDS011;571;50.930;6.926;2022-12-11T14:36:23;24.27;;;16.70;;
1164;SDS011;571;50.930;6.926;2022-12-11T14:38:54;25.77;;;15.03;;
1164;SDS011;571;50.930;6.926;2022-12-11T14:41:26;25.93;;;16.97;;
1164;SDS011;571;50.930;6.926;2022-12-11T14:43:59;27.37;;;16.47;;
1164;SDS011;571;50.930;6.926;2022-12-11T14:46:31;28.63;;;16.70;;
1164;SDS011;571;50.930;6.926;2022-12-11T14:49:04;27.13;;;15.20;;
1164;SDS011;571;50.930;6.926;2022-12-11T14:51:39;21.77;;;15.50;;
1164;SDS011;571;50.930;6.926;2022-12-11T14:54:10;21.33;;;13.93;;
1164;SDS011;571;50.930;6.926;2022-12-11T14:56:42;23.63;;;14.00;;
1164;SDS011;571;50.930;6.926;2022-12-11T14:59:14;22.97;;;15.33;;
1164;SDS011;571;50.930;6.926;2022-12-11T15:01:46;24.90;;;14.97;;
1164;SDS011;571;50.930;6.926;2022-12-11T15:04:25;27.70;;;15.97;;
1164;SDS011;571;50.930;6.926;2022-12-11T15:06:54;27.57;;;16.00;;
1164;SDS011;571;50.930;6.926;2022-12-11T15:09:24;25.57;;;16.17;;
1164;SDS011;571;50.930;6.926;2022-12-11T15:11:54;25.13;;;15.47;;
1164;SDS011;571;50.930;6.926;2022-12-11T15:14:23;29.33;;;16.47;;
1164;SDS011;571;50.930;6.926;2022-12-11T15:16:52;30.43;;;17.20;;
1164;SDS011;571;50.930;6.926;2022-12-11T15:19:21;23.83;;;15.13;;
1164;SDS011;571;50.930;6.926;2022-12-11T15:21:52;30.53;;;18.30;;
1164;SDS011;571;50.930;6.926;2022-12-11T15:24:27;27.30;;;18.07;;
1164;SDS011;571;50.930;6.926;2022-12-11T15:26:59;31.90;;;17.50;;
1164;SDS011;571;50.930;6.926;2022-12-11T15:29:29;31.80;;;19.57;;
1164;SDS011;571;50.930;6.926;2022-12-11T15:32:14;33.03;;;19.30;;
1164;SDS011;571;50.930;6.926;2022-12-11T15:34:44;25.67;;;16.80;;
1164;SDS011;571;50.930;6.926;2022-12-11T15:37:17;24.90;;;16.63;;
1164;SDS011;571;50.930;6.926;2022-12-11T15:39:45;30.10;;;19.80;;
1164;SDS011;571;50.930;6.926;2022-12-11T15:42:12;32.10;;;19.97;;
1164;SDS011;571;50.930;6.926;2022-12-11T15:44:43;31.17;;;18.37;;
1164;SDS011;571;50.930;6.926;2022-12-11T15:47:11;27.87;;;19.00;;
1164;SDS011;571;50.930;6.926;2022-12-11T15:49:38;25.50;;;17.33;;
1164;SDS011;571;50.930;6.926;2022-12-11T15:52:05;25.83;;;17.80;;
1164;SDS011;571;50.930;6.926;2022-12-11T15:54:33;35.30;;;19.47;;
1164;SDS011;571;50.930;6.926;2022-12-11T15:57:00;27.83;;;18.97;;
1164;SDS011;571;50.930;6.926;2022-12-11T15:59:31;29.80;;;19.53;;
1164;SDS011;571;50.930;6.926;2022-12-11T16:01:58;30.90;;;19.60;;
1164;SDS011;571;50.930;6.926;2022-12-11T16:04:25;29.20;;;19.67;;
1164;SDS011;571;50.930;6.926;2022-12-11T16:06:52;28.73;;;18.87;;
1164;SDS011;571;50.930;6.926;2022-12-11T16:09:19;23.97;;;17.50;;
1164;SDS011;571;50.930;6.926;2022-12-11T16:11:47;29.97;;;17.87;;
1164;SDS011;571;50.930;6.926;2022-12-11T16:14:14;24.80;;;16.73;;
1164;SDS011;571;50.930;6.926;2022-12-11T16:16:40;32.70;;;19.30;;
1164;SDS011;571;50.930;6.926;2022-12-11T16:19:07;23.37;;;17.47;;
1164;SDS011;571;50.930;6.926;2022-12-11T16:21:34;33.27;;;20.30;;
1164;SDS011;571;50.930;6.926;2022-12-11T16:24:00;26.83;;;17.70;;
1164;SDS011;571;50.930;6.926;2022-12-11T16:26:27;21.60;;;17.50;;
1164;SDS011;571;50.930;6.926;2022-12-11T16:28:55;30.70;;;20.93;;
1164;SDS011;571;50.930;6.926;2022-12-11T16:31:22;28.00;;;19.10;;
1164;SDS011;571;50.930;6.926;2022-12-11T16:33:49;29.60;;;18.97;;
1164;SDS011;571;50.930;6.926;2022-12-11T16:36:16;27.30;;;18.90;;
1164;SDS011;571;50.930;6.926;2022-12-11T16:38:44;30.03;;;19.37;;
1164;SDS011;571;50.930;6.926;2022-12-11T16:41:11;28.37;;;17.97;;
1164;SDS011;571;50.930;6.926;2022-12-11T16:43:38;33.43;;;21.30;;
1164;SDS011;571;50.930;6.926;2022-12-11T16:46:06;40.47;;;21.00;;
1164;SDS011;571;50.930;6.926;2022-12-11T16:48:33;31.07;;;18.83;;
1164;SDS011;571;50.930;6.926;2022-12-11T16:51:00;28.67;;;19.20;;
1164;SDS011;571;50.930;6.926;2022-12-11T16:53:26;34.63;;;20.03;;
1164;SDS011;571;50.930;6.926;2022-12-11T16:55:53;32.83;;;19.40;;
1164;SDS011;571;50.930;6.926;2022-12-11T16:58:20;30.43;;;19.73;;
1164;SDS011;571;50.930;6.926;2022-12-11T17:00:47;36.97;;;20.70;;
1164;SDS011;571;50.930;6.926;2022-12-11T17:03:15;23.60;;;18.27;;
1164;SDS011;571;50.930;6.926;2022-12-11T17:05:43;31.20;;;18.17;;
1164;SDS011;571;50.930;6.926;2022-12-11T17:08:10;26.83;;;17.00;;
1164;SDS011;571;50.930;6.926;2022-12-11T17:10:37;30.53;;;19.93;;
1164;SDS011;571;50.930;6.926;2022-12-11T17:13:05;28.67;;;18.73;;
1164;SDS011;571;50.930;6.926;2022-12-11T17:15:31;27.53;;;17.57;;
1164;SDS011;571;50.930;6.926;2022-12-11T17:17:58;30.87;;;18.27;;
1164;SDS011;571;50.930;6.926;2022-12-11T17:20:26;37.70;;;17.70;;
1164;SDS011;571;50.930;6.926;2022-12-11T17:22:53;25.63;;;19.33;;
1164;SDS011;571;50.930;6.926;2022-12-11T17:25:20;31.70;;;19.67;;
1164;SDS011;571;50.930;6.926;2022-12-11T17:27:47;24.27;;;17.63;;
1164;SDS011;571;50.930;6.926;2022-12-11T17:30:14;31.33;;;20.87;;
1164;SDS011;571;50.930;6.926;2022-12-11T17:32:41;28.20;;;18.50;;
1164;SDS011;571;50.930;6.926;2022-12-11T17:35:08;26.30;;;20.00;;
1164;SDS011;571;50.930;6.926;2022-12-11T17:37:36;29.60;;;19.83;;
1164;SDS011;571;50.930;6.926;2022-12-11T17:40:03;30.50;;;21.10;;
1164;SDS011;571;50.930;6.926;2022-12-11T17:42:30;30.70;;;20.60;;
1164;SDS011;571;50.930;6.926;2022-12-11T17:44:57;29.17;;;19.43;;
1164;SDS011;571;50.930;6.926;2022-12-11T17:47:27;32.10;;;19.80;;
1164;SDS011;571;50.930;6.926;2022-12-11T17:49:57;31.03;;;19.47;;
1164;SDS011;571;50.930;6.926;2022-12-11T17:52:24;29.70;;;19.10;;
1164;SDS011;571;50.930;6.926;2022-12-11T17:54:54;31.37;;;18.67;;
1164;SDS011;571;50.930;6.926;2022-12-11T17:57:21;34.40;;;20.93;;
1164;SDS011;571;50.930;6.926;2022-12-11T17:59:48;34.97;;;22.40;;
1164;SDS011;571;50.930;6.926;2022-12-11T18:02:18;32.20;;;19.87;;
1164;SDS011;571;50.930;6.926;2022-12-11T18:04:45;33.87;;;22.53;;
1164;SDS011;571;50.930;6.926;2022-12-11T18:07:12;28.03;;;20.10;;
1164;SDS011;571;50.930;6.926;2022-12-11T18:09:40;31.33;;;20.00;;
1164;SDS011;571;50.930;6.926;2022-12-11T18:12:08;25.27;;;18.50;;
1164;SDS011;571;50.930;6.926;2022-12-11T18:14:35;32.30;;;21.60;;
1164;SDS011;571;50.930;6.926;2022-12-11T18:17:03;32.53;;;22.00;;
1164;SDS011;571;50.930;6.926;2022-12-11T18:19:33;28.43;;;19.53;;
1164;SDS011;571;50.930;6.926;2022-12-11T18:22:00;31.47;;;21.57;;
1164;SDS011;571;50.930;6.926;2022-12-11T18:24:26;32.03;;;20.23;;
1164;SDS011;571;50.930;6.926;2022-12-11T18:26:56;31.27;;;19.07;;
1164;SDS011;571;50.930;6.926;2022-12-11T18:29:29;32.90;;;21.17;;
1164;SDS011;571;50.930;6.926;2022-12-11T18:31:56;32.47;;;20.83;;
1164;SDS011;571;50.930;6.926;2022-12-11T18:34:23;32.87;;;18.90;;
1164;SDS011;571;50.930;6.926;2022-12-11T18:36:53;24.33;;;17.80;;
1164;SDS011;571;50.930;6.926;2022-12-11T18:39:22;24.93;;;17.60;;
1164;SDS011;571;50.930;6.926;2022-12-11T18:41:49;27.20;;;20.00;;
1164;SDS011;571;50.930;6.926;2022-12-11T18:44:16;26.23;;;18.13;;
1164;SDS011;571;50.930;6.926;2022-12-11T18:46:50;27.23;;;20.00;;
1164;SDS011;571;50.930;6.926;2022-12-11T18:49:17;33.60;;;21.07;;
1164;SDS011;571;50.930;6.926;2022-12-11T18:51:51;27.60;;;18.67;;
1164;SDS011;571;50.930;6.926;2022-12-11T18:54:18;30.13;;;20.83;;
1164;SDS011;571;50.930;6.926;2022-12-11T18:56:45;30.60;;;21.60;;
1164;SDS011;571;50.930;6.926;2022-12-11T18:59:12;31.17;;;20.27;;
1164;SDS011;571;50.930;6.926;2022-12-11T19:01:39;31.07;;;20.37;;